sensor_id;sensor_type;location;lat;lon;timestamp;P1;durP1;ratioP1;P2;durP2;ratioP2
3081;SDS011;1551;51.046;7.010;2023-08-08T00:00:29;4.63;;;1.90;;
3081;SDS011;1551;51.046;7.010;2023-08-08T00:03:18;3.47;;;1.70;;
3081;SDS011;1551;51.046;7.010;2023-08-08T00:06:07;6.10;;;1.90;;
3081;SDS011;1551;51.046;7.010;2023-08-08T00:08:56;3.83;;;1.87;;
3081;SDS011;1551;51.046;7.010;2023-08-08T00:11:45;4.43;;;1.90;;
3081;SDS011;1551;51.046;7.010;2023-08-08T00:14:34;5.00;;;1.65;;
3081;SDS011;1551;51.046;7.010;2023-08-08T00:17:23;4.50;;;1.40;;
3081;SDS011;1551;51.046;7.010;2023-08-08T00:20:12;3.28;;;1.88;;
3081;SDS011;1551;51.046;7.010;2023-08-08T00:23:01;4.20;;;1.77;;
3081;SDS011;1551;51.046;7.010;2023-08-08T00:25:50;3.08;;;1.88;;
3081;SDS011;1551;51.046;7.010;2023-08-08T00:28:39;3.80;;;2.15;;
3081;SDS011;1551;51.046;7.010;2023-08-08T00:31:30;5.38;;;1.80;;
3081;SDS011;1551;51.046;7.010;2023-08-08T00:34:19;6.15;;;2.13;;
3081;SDS011;1551;51.046;7.010;2023-08-08T00:37:08;4.10;;;1.85;;
3081;SDS011;1551;51.046;7.010;2023-08-08T00:39:57;5.30;;;2.20;;
3081;SDS011;1551;51.046;7.010;2023-08-08T00:42:46;3.70;;;1.60;;
3081;SDS011;1551;51.046;7.010;2023-08-08T00:45:35;6.82;;;2.20;;
3081;SDS011;1551;51.046;7.010;2023-08-08T00:48:25;3.00;;;1.60;;
3081;SDS011;1551;51.046;7.010;2023-08-08T00:51:16;4.65;;;1.88;;
3081;SDS011;1551;51.046;7.010;2023-08-08T00:54:06;3.85;;;1.80;;
3081;SDS011;1551;51.046;7.010;2023-08-08T00:56:57;4.28;;;2.20;;
3081;SDS011;1551;51.046;7.010;2023-08-08T00:59:45;3.97;;;1.92;;
3081;SDS011;1551;51.046;7.010;2023-08-08T01:02:34;4.68;;;1.73;;
3081;SDS011;1551;51.046;7.010;2023-08-08T01:05:24;5.30;;;1.90;;
3081;SDS011;1551;51.046;7.010;2023-08-08T01:08:18;3.05;;;1.70;;
3081;SDS011;1551;51.046;7.010;2023-08-08T01:11:15;3.75;;;1.70;;
3081;SDS011;1551;51.046;7.010;2023-08-08T01:14:06;4.13;;;1.95;;
3081;SDS011;1551;51.046;7.010;2023-08-08T01:16:57;3.38;;;1.67;;
3081;SDS011;1551;51.046;7.010;2023-08-08T01:19:49;4.83;;;1.90;;
3081;SDS011;1551;51.046;7.010;2023-08-08T01:22:40;3.20;;;1.50;;
3081;SDS011;1551;51.046;7.010;2023-08-08T01:25:38;3.58;;;2.00;;
3081;SDS011;1551;51.046;7.010;2023-08-08T01:28:29;3.63;;;1.80;;
3081;SDS011;1551;51.046;7.010;2023-08-08T01:31:17;4.43;;;2.00;;
3081;SDS011;1551;51.046;7.010;2023-08-08T01:34:07;4.53;;;2.25;;
3081;SDS011;1551;51.046;7.010;2023-08-08T01:37:02;3.90;;;1.98;;
3081;SDS011;1551;51.046;7.010;2023-08-08T01:40:07;7.72;;;2.50;;
3081;SDS011;1551;51.046;7.010;2023-08-08T01:42:58;3.10;;;1.60;;
3081;SDS011;1551;51.046;7.010;2023-08-08T01:45:47;4.35;;;2.00;;
3081;SDS011;1551;51.046;7.010;2023-08-08T01:48:36;3.30;;;1.60;;
3081;SDS011;1551;51.046;7.010;2023-08-08T01:51:26;3.35;;;1.90;;
3081;SDS011;1551;51.046;7.010;2023-08-08T01:54:16;4.90;;;2.33;;
3081;SDS011;1551;51.046;7.010;2023-08-08T01:57:05;5.03;;;1.92;;
3081;SDS011;1551;51.046;7.010;2023-08-08T01:59:54;3.92;;;1.90;;
3081;SDS011;1551;51.046;7.010;2023-08-08T02:02:43;3.60;;;1.90;;
3081;SDS011;1551;51.046;7.010;2023-08-08T02:05:32;4.70;;;2.20;;
3081;SDS011;1551;51.046;7.010;2023-08-08T02:08:21;5.82;;;2.13;;
3081;SDS011;1551;51.046;7.010;2023-08-08T02:11:10;5.07;;;2.17;;
3081;SDS011;1551;51.046;7.010;2023-08-08T02:13:59;4.80;;;2.10;;
3081;SDS011;1551;51.046;7.010;2023-08-08T02:16:48;6.63;;;2.40;;
3081;SDS011;1551;51.046;7.010;2023-08-08T02:19:37;5.80;;;2.20;;
3081;SDS011;1551;51.046;7.010;2023-08-08T02:22:26;4.32;;;2.20;;
3081;SDS011;1551;51.046;7.010;2023-08-08T02:25:15;6.05;;;1.98;;
3081;SDS011;1551;51.046;7.010;2023-08-08T02:28:04;4.18;;;2.40;;
3081;SDS011;1551;51.046;7.010;2023-08-08T02:30:53;4.93;;;2.03;;
3081;SDS011;1551;51.046;7.010;2023-08-08T02:33:43;4.13;;;2.37;;
3081;SDS011;1551;51.046;7.010;2023-08-08T02:36:31;4.20;;;2.20;;
3081;SDS011;1551;51.046;7.010;2023-08-08T02:39:21;7.00;;;2.40;;
3081;SDS011;1551;51.046;7.010;2023-08-08T02:42:11;6.50;;;2.60;;
3081;SDS011;1551;51.046;7.010;2023-08-08T02:45:00;4.70;;;2.00;;
3081;SDS011;1551;51.046;7.010;2023-08-08T02:47:48;4.13;;;1.95;;
3081;SDS011;1551;51.046;7.010;2023-08-08T02:50:37;5.20;;;2.40;;
3081;SDS011;1551;51.046;7.010;2023-08-08T02:53:26;4.80;;;1.95;;
3081;SDS011;1551;51.046;7.010;2023-08-08T02:56:15;4.60;;;1.90;;
3081;SDS011;1551;51.046;7.010;2023-08-08T02:59:05;3.73;;;2.00;;
3081;SDS011;1551;51.046;7.010;2023-08-08T03:01:55;4.95;;;2.30;;
3081;SDS011;1551;51.046;7.010;2023-08-08T03:04:43;4.78;;;2.13;;
3081;SDS011;1551;51.046;7.010;2023-08-08T03:07:34;4.93;;;2.10;;
3081;SDS011;1551;51.046;7.010;2023-08-08T03:10:23;4.60;;;2.25;;
3081;SDS011;1551;51.046;7.010;2023-08-08T03:13:13;4.60;;;2.30;;
3081;SDS011;1551;51.046;7.010;2023-08-08T03:16:03;4.75;;;2.30;;
3081;SDS011;1551;51.046;7.010;2023-08-08T03:18:55;3.40;;;1.87;;
3081;SDS011;1551;51.046;7.010;2023-08-08T03:21:45;4.80;;;2.10;;
3081;SDS011;1551;51.046;7.010;2023-08-08T03:24:34;5.10;;;2.28;;
3081;SDS011;1551;51.046;7.010;2023-08-08T03:27:23;4.05;;;2.00;;
3081;SDS011;1551;51.046;7.010;2023-08-08T03:30:15;4.07;;;2.00;;
3081;SDS011;1551;51.046;7.010;2023-08-08T03:33:05;6.40;;;2.20;;
3081;SDS011;1551;51.046;7.010;2023-08-08T03:35:54;5.78;;;2.35;;
3081;SDS011;1551;51.046;7.010;2023-08-08T03:38:43;4.13;;;2.20;;
3081;SDS011;1551;51.046;7.010;2023-08-08T03:41:34;4.80;;;2.20;;
3081;SDS011;1551;51.046;7.010;2023-08-08T03:44:24;4.07;;;1.80;;
3081;SDS011;1551;51.046;7.010;2023-08-08T03:47:12;5.55;;;2.33;;
3081;SDS011;1551;51.046;7.010;2023-08-08T03:50:01;4.70;;;1.80;;
3081;SDS011;1551;51.046;7.010;2023-08-08T03:52:51;4.80;;;2.30;;
3081;SDS011;1551;51.046;7.010;2023-08-08T03:55:42;3.75;;;1.98;;
3081;SDS011;1551;51.046;7.010;2023-08-08T03:58:31;3.50;;;1.70;;
3081;SDS011;1551;51.046;7.010;2023-08-08T04:01:20;5.15;;;2.10;;
3081;SDS011;1551;51.046;7.010;2023-08-08T04:04:09;3.63;;;1.90;;
3081;SDS011;1551;51.046;7.010;2023-08-08T04:06:58;3.50;;;1.60;;
3081;SDS011;1551;51.046;7.010;2023-08-08T04:09:47;5.50;;;2.42;;
3081;SDS011;1551;51.046;7.010;2023-08-08T04:12:36;5.22;;;2.40;;
3081;SDS011;1551;51.046;7.010;2023-08-08T04:15:25;6.28;;;2.30;;
3081;SDS011;1551;51.046;7.010;2023-08-08T04:18:14;4.72;;;2.30;;
3081;SDS011;1551;51.046;7.010;2023-08-08T04:21:03;5.28;;;2.40;;
3081;SDS011;1551;51.046;7.010;2023-08-08T04:23:52;7.40;;;2.33;;
3081;SDS011;1551;51.046;7.010;2023-08-08T04:26:41;6.35;;;2.70;;
3081;SDS011;1551;51.046;7.010;2023-08-08T04:29:30;6.80;;;2.30;;
3081;SDS011;1551;51.046;7.010;2023-08-08T04:32:19;5.72;;;1.98;;
3081;SDS011;1551;51.046;7.010;2023-08-08T04:35:08;4.93;;;2.05;;
3081;SDS011;1551;51.046;7.010;2023-08-08T04:37:57;5.53;;;2.50;;
3081;SDS011;1551;51.046;7.010;2023-08-08T04:40:46;5.18;;;2.50;;
3081;SDS011;1551;51.046;7.010;2023-08-08T04:43:35;10.00;;;3.30;;
3081;SDS011;1551;51.046;7.010;2023-08-08T04:46:24;6.10;;;2.80;;
3081;SDS011;1551;51.046;7.010;2023-08-08T04:49:13;6.78;;;2.75;;
3081;SDS011;1551;51.046;7.010;2023-08-08T04:52:02;4.88;;;2.58;;
3081;SDS011;1551;51.046;7.010;2023-08-08T04:54:52;7.15;;;3.05;;
3081;SDS011;1551;51.046;7.010;2023-08-08T04:57:41;7.13;;;3.17;;
3081;SDS011;1551;51.046;7.010;2023-08-08T05:00:30;7.57;;;2.63;;
3081;SDS011;1551;51.046;7.010;2023-08-08T05:03:19;11.00;;;3.10;;
3081;SDS011;1551;51.046;7.010;2023-08-08T05:06:08;7.55;;;3.50;;
3081;SDS011;1551;51.046;7.010;2023-08-08T05:08:57;5.38;;;3.10;;
3081;SDS011;1551;51.046;7.010;2023-08-08T05:11:45;7.30;;;3.77;;
3081;SDS011;1551;51.046;7.010;2023-08-08T05:14:35;4.95;;;2.75;;
3081;SDS011;1551;51.046;7.010;2023-08-08T05:17:24;6.90;;;3.47;;
3081;SDS011;1551;51.046;7.010;2023-08-08T05:20:13;6.60;;;2.95;;
3081;SDS011;1551;51.046;7.010;2023-08-08T05:23:02;4.30;;;2.92;;
3081;SDS011;1551;51.046;7.010;2023-08-08T05:25:51;6.53;;;3.47;;
3081;SDS011;1551;51.046;7.010;2023-08-08T05:28:40;5.80;;;3.60;;
3081;SDS011;1551;51.046;7.010;2023-08-08T05:31:30;7.65;;;4.35;;
3081;SDS011;1551;51.046;7.010;2023-08-08T05:34:19;6.32;;;3.45;;
3081;SDS011;1551;51.046;7.010;2023-08-08T05:37:08;7.50;;;3.55;;
3081;SDS011;1551;51.046;7.010;2023-08-08T05:39:56;8.30;;;3.90;;
3081;SDS011;1551;51.046;7.010;2023-08-08T05:42:45;5.68;;;3.10;;
3081;SDS011;1551;51.046;7.010;2023-08-08T05:45:34;6.68;;;3.58;;
3081;SDS011;1551;51.046;7.010;2023-08-08T05:48:23;5.35;;;2.85;;
3081;SDS011;1551;51.046;7.010;2023-08-08T05:51:12;5.85;;;3.20;;
3081;SDS011;1551;51.046;7.010;2023-08-08T05:54:01;8.75;;;3.20;;
3081;SDS011;1551;51.046;7.010;2023-08-08T05:56:51;8.00;;;3.20;;
3081;SDS011;1551;51.046;7.010;2023-08-08T05:59:41;7.55;;;3.35;;
3081;SDS011;1551;51.046;7.010;2023-08-08T06:02:30;7.32;;;2.80;;
3081;SDS011;1551;51.046;7.010;2023-08-08T06:05:21;9.40;;;3.60;;
3081;SDS011;1551;51.046;7.010;2023-08-08T06:08:10;6.63;;;3.40;;
3081;SDS011;1551;51.046;7.010;2023-08-08T06:11:01;5.88;;;3.20;;
3081;SDS011;1551;51.046;7.010;2023-08-08T06:13:50;7.67;;;3.43;;
3081;SDS011;1551;51.046;7.010;2023-08-08T06:16:38;7.37;;;3.20;;
3081;SDS011;1551;51.046;7.010;2023-08-08T06:19:27;5.82;;;2.90;;
3081;SDS011;1551;51.046;7.010;2023-08-08T06:22:16;7.93;;;3.10;;
3081;SDS011;1551;51.046;7.010;2023-08-08T06:25:06;12.33;;;3.93;;
3081;SDS011;1551;51.046;7.010;2023-08-08T06:27:55;6.00;;;3.55;;
3081;SDS011;1551;51.046;7.010;2023-08-08T06:30:44;7.25;;;3.60;;
3081;SDS011;1551;51.046;7.010;2023-08-08T06:33:34;5.70;;;2.80;;
3081;SDS011;1551;51.046;7.010;2023-08-08T06:36:23;6.70;;;3.28;;
3081;SDS011;1551;51.046;7.010;2023-08-08T06:39:12;7.50;;;2.90;;
3081;SDS011;1551;51.046;7.010;2023-08-08T06:42:01;6.43;;;3.00;;
3081;SDS011;1551;51.046;7.010;2023-08-08T06:45:00;8.38;;;3.00;;
3081;SDS011;1551;51.046;7.010;2023-08-08T06:47:49;9.20;;;3.00;;
3081;SDS011;1551;51.046;7.010;2023-08-08T06:50:38;4.57;;;2.40;;
3081;SDS011;1551;51.046;7.010;2023-08-08T06:53:27;8.60;;;3.60;;
3081;SDS011;1551;51.046;7.010;2023-08-08T06:56:16;6.60;;;2.95;;
3081;SDS011;1551;51.046;7.010;2023-08-08T06:59:05;6.32;;;2.67;;
3081;SDS011;1551;51.046;7.010;2023-08-08T07:01:54;7.38;;;2.95;;
3081;SDS011;1551;51.046;7.010;2023-08-08T07:04:44;6.22;;;2.80;;
3081;SDS011;1551;51.046;7.010;2023-08-08T07:07:34;7.83;;;3.70;;
3081;SDS011;1551;51.046;7.010;2023-08-08T07:10:24;7.03;;;3.15;;
3081;SDS011;1551;51.046;7.010;2023-08-08T07:13:12;5.25;;;2.80;;
3081;SDS011;1551;51.046;7.010;2023-08-08T07:16:03;5.25;;;2.80;;
3081;SDS011;1551;51.046;7.010;2023-08-08T07:18:52;7.30;;;3.00;;
3081;SDS011;1551;51.046;7.010;2023-08-08T07:21:41;6.13;;;3.00;;
3081;SDS011;1551;51.046;7.010;2023-08-08T07:24:30;6.82;;;2.85;;
3081;SDS011;1551;51.046;7.010;2023-08-08T07:27:19;7.30;;;2.92;;
3081;SDS011;1551;51.046;7.010;2023-08-08T07:30:08;4.95;;;3.30;;
3081;SDS011;1551;51.046;7.010;2023-08-08T07:32:57;6.90;;;3.40;;
3081;SDS011;1551;51.046;7.010;2023-08-08T07:35:46;5.80;;;3.20;;
3081;SDS011;1551;51.046;7.010;2023-08-08T07:38:35;9.33;;;3.20;;
3081;SDS011;1551;51.046;7.010;2023-08-08T07:41:24;8.15;;;3.55;;
3081;SDS011;1551;51.046;7.010;2023-08-08T07:44:13;5.97;;;3.20;;
3081;SDS011;1551;51.046;7.010;2023-08-08T07:47:02;5.88;;;3.28;;
3081;SDS011;1551;51.046;7.010;2023-08-08T07:49:51;6.40;;;3.70;;
3081;SDS011;1551;51.046;7.010;2023-08-08T07:52:40;5.93;;;3.40;;
3081;SDS011;1551;51.046;7.010;2023-08-08T07:55:29;7.28;;;4.00;;
3081;SDS011;1551;51.046;7.010;2023-08-08T07:58:18;13.88;;;3.97;;
3081;SDS011;1551;51.046;7.010;2023-08-08T08:01:08;6.07;;;2.97;;
3081;SDS011;1551;51.046;7.010;2023-08-08T08:03:57;5.63;;;3.15;;
3081;SDS011;1551;51.046;7.010;2023-08-08T08:06:46;9.20;;;3.33;;
3081;SDS011;1551;51.046;7.010;2023-08-08T08:09:35;7.10;;;3.37;;
3081;SDS011;1551;51.046;7.010;2023-08-08T08:12:24;8.00;;;3.55;;
3081;SDS011;1551;51.046;7.010;2023-08-08T08:15:13;9.07;;;3.40;;
3081;SDS011;1551;51.046;7.010;2023-08-08T08:18:02;8.23;;;3.58;;
3081;SDS011;1551;51.046;7.010;2023-08-08T08:20:52;5.80;;;3.30;;
3081;SDS011;1551;51.046;7.010;2023-08-08T08:23:41;6.40;;;3.40;;
3081;SDS011;1551;51.046;7.010;2023-08-08T08:26:30;9.43;;;4.00;;
3081;SDS011;1551;51.046;7.010;2023-08-08T08:29:19;5.13;;;3.53;;
3081;SDS011;1551;51.046;7.010;2023-08-08T08:32:08;7.22;;;3.20;;
3081;SDS011;1551;51.046;7.010;2023-08-08T08:34:57;7.90;;;2.97;;
3081;SDS011;1551;51.046;7.010;2023-08-08T08:37:46;6.90;;;3.80;;
3081;SDS011;1551;51.046;7.010;2023-08-08T08:40:39;7.57;;;3.53;;
3081;SDS011;1551;51.046;7.010;2023-08-08T08:43:30;4.93;;;3.22;;
3081;SDS011;1551;51.046;7.010;2023-08-08T08:46:20;8.30;;;4.10;;
3081;SDS011;1551;51.046;7.010;2023-08-08T08:49:10;9.10;;;4.50;;
3081;SDS011;1551;51.046;7.010;2023-08-08T08:52:00;6.47;;;4.50;;
3081;SDS011;1551;51.046;7.010;2023-08-08T08:54:53;10.18;;;4.75;;
3081;SDS011;1551;51.046;7.010;2023-08-08T08:57:42;10.80;;;5.00;;
3081;SDS011;1551;51.046;7.010;2023-08-08T09:00:33;7.47;;;5.38;;
3081;SDS011;1551;51.046;7.010;2023-08-08T09:03:23;9.10;;;5.00;;
3081;SDS011;1551;51.046;7.010;2023-08-08T09:06:13;8.10;;;5.80;;
3081;SDS011;1551;51.046;7.010;2023-08-08T09:09:02;7.90;;;5.70;;
3081;SDS011;1551;51.046;7.010;2023-08-08T09:11:53;8.87;;;6.00;;
3081;SDS011;1551;51.046;7.010;2023-08-08T09:14:45;9.63;;;5.47;;
3081;SDS011;1551;51.046;7.010;2023-08-08T09:17:34;6.85;;;4.60;;
3081;SDS011;1551;51.046;7.010;2023-08-08T09:20:25;9.90;;;5.43;;
3081;SDS011;1551;51.046;7.010;2023-08-08T09:23:16;11.45;;;5.65;;
3081;SDS011;1551;51.046;7.010;2023-08-08T09:26:05;7.47;;;5.60;;
3081;SDS011;1551;51.046;7.010;2023-08-08T09:28:55;7.55;;;5.50;;
3081;SDS011;1551;51.046;7.010;2023-08-08T09:31:45;10.37;;;5.40;;
3081;SDS011;1551;51.046;7.010;2023-08-08T09:34:35;9.80;;;5.13;;
3081;SDS011;1551;51.046;7.010;2023-08-08T09:37:25;10.60;;;5.68;;
3081;SDS011;1551;51.046;7.010;2023-08-08T09:40:14;8.25;;;5.05;;
3081;SDS011;1551;51.046;7.010;2023-08-08T09:43:06;7.38;;;5.22;;
3081;SDS011;1551;51.046;7.010;2023-08-08T09:45:55;7.95;;;5.88;;
3081;SDS011;1551;51.046;7.010;2023-08-08T09:48:44;8.98;;;5.22;;
3081;SDS011;1551;51.046;7.010;2023-08-08T09:51:33;6.40;;;5.00;;
3081;SDS011;1551;51.046;7.010;2023-08-08T09:54:22;7.73;;;5.00;;
3081;SDS011;1551;51.046;7.010;2023-08-08T09:57:12;7.63;;;5.00;;
3081;SDS011;1551;51.046;7.010;2023-08-08T10:00:02;6.97;;;5.50;;
3081;SDS011;1551;51.046;7.010;2023-08-08T10:02:55;8.98;;;5.47;;
3081;SDS011;1551;51.046;7.010;2023-08-08T10:05:45;9.73;;;5.03;;
3081;SDS011;1551;51.046;7.010;2023-08-08T10:08:34;8.65;;;5.40;;
3081;SDS011;1551;51.046;7.010;2023-08-08T10:11:23;8.60;;;5.50;;
3081;SDS011;1551;51.046;7.010;2023-08-08T10:14:14;5.97;;;4.28;;
3081;SDS011;1551;51.046;7.010;2023-08-08T10:17:04;8.05;;;5.00;;
3081;SDS011;1551;51.046;7.010;2023-08-08T10:19:55;8.15;;;5.10;;
3081;SDS011;1551;51.046;7.010;2023-08-08T10:22:45;10.02;;;5.00;;
3081;SDS011;1551;51.046;7.010;2023-08-08T10:25:35;6.40;;;4.70;;
3081;SDS011;1551;51.046;7.010;2023-08-08T10:28:25;7.65;;;4.50;;
3081;SDS011;1551;51.046;7.010;2023-08-08T10:31:16;7.53;;;4.15;;
3081;SDS011;1551;51.046;7.010;2023-08-08T10:34:09;7.00;;;4.32;;
3081;SDS011;1551;51.046;7.010;2023-08-08T10:36:58;5.60;;;4.00;;
3081;SDS011;1551;51.046;7.010;2023-08-08T10:39:51;5.28;;;3.80;;
3081;SDS011;1551;51.046;7.010;2023-08-08T10:42:44;6.18;;;3.90;;
3081;SDS011;1551;51.046;7.010;2023-08-08T10:45:35;6.65;;;3.92;;
3081;SDS011;1551;51.046;7.010;2023-08-08T10:48:25;5.28;;;3.20;;
3081;SDS011;1551;51.046;7.010;2023-08-08T10:51:14;6.43;;;2.90;;
3081;SDS011;1551;51.046;7.010;2023-08-08T10:54:09;5.50;;;3.35;;
3081;SDS011;1551;51.046;7.010;2023-08-08T10:57:02;4.50;;;3.17;;
3081;SDS011;1551;51.046;7.010;2023-08-08T10:59:52;6.13;;;3.40;;
3081;SDS011;1551;51.046;7.010;2023-08-08T11:02:44;4.60;;;3.35;;
3081;SDS011;1551;51.046;7.010;2023-08-08T11:05:34;4.93;;;3.40;;
3081;SDS011;1551;51.046;7.010;2023-08-08T11:08:24;6.10;;;3.43;;
3081;SDS011;1551;51.046;7.010;2023-08-08T11:11:13;6.40;;;3.40;;
3081;SDS011;1551;51.046;7.010;2023-08-08T11:14:12;6.20;;;3.35;;
3081;SDS011;1551;51.046;7.010;2023-08-08T11:17:04;6.80;;;3.20;;
3081;SDS011;1551;51.046;7.010;2023-08-08T11:19:54;4.20;;;2.70;;
3081;SDS011;1551;51.046;7.010;2023-08-08T11:22:44;6.18;;;2.92;;
3081;SDS011;1551;51.046;7.010;2023-08-08T11:25:33;5.10;;;2.30;;
3081;SDS011;1551;51.046;7.010;2023-08-08T11:28:22;4.88;;;2.60;;
3081;SDS011;1551;51.046;7.010;2023-08-08T11:31:11;5.20;;;2.45;;
3081;SDS011;1551;51.046;7.010;2023-08-08T11:34:00;6.10;;;3.00;;
3081;SDS011;1551;51.046;7.010;2023-08-08T11:36:49;4.65;;;2.38;;
3081;SDS011;1551;51.046;7.010;2023-08-08T11:39:39;6.93;;;2.30;;
3081;SDS011;1551;51.046;7.010;2023-08-08T11:42:28;6.25;;;2.65;;
3081;SDS011;1551;51.046;7.010;2023-08-08T11:45:17;6.97;;;2.58;;
3081;SDS011;1551;51.046;7.010;2023-08-08T11:48:07;5.32;;;2.72;;
3081;SDS011;1551;51.046;7.010;2023-08-08T11:50:56;5.63;;;2.40;;
3081;SDS011;1551;51.046;7.010;2023-08-08T11:53:52;5.17;;;2.37;;
3081;SDS011;1551;51.046;7.010;2023-08-08T11:56:43;5.93;;;2.70;;
3081;SDS011;1551;51.046;7.010;2023-08-08T11:59:32;4.45;;;2.13;;
3081;SDS011;1551;51.046;7.010;2023-08-08T12:02:22;5.25;;;2.50;;
3081;SDS011;1551;51.046;7.010;2023-08-08T12:05:12;3.97;;;2.90;;
3081;SDS011;1551;51.046;7.010;2023-08-08T12:08:06;7.40;;;2.40;;
3081;SDS011;1551;51.046;7.010;2023-08-08T12:10:55;5.85;;;2.90;;
3081;SDS011;1551;51.046;7.010;2023-08-08T12:13:46;3.88;;;2.10;;
3081;SDS011;1551;51.046;7.010;2023-08-08T12:16:36;5.32;;;2.50;;
3081;SDS011;1551;51.046;7.010;2023-08-08T12:19:27;5.50;;;2.30;;
3081;SDS011;1551;51.046;7.010;2023-08-08T12:22:17;4.65;;;2.53;;
3081;SDS011;1551;51.046;7.010;2023-08-08T12:25:06;4.50;;;2.38;;
3081;SDS011;1551;51.046;7.010;2023-08-08T12:27:57;4.83;;;2.33;;
3081;SDS011;1551;51.046;7.010;2023-08-08T12:30:45;6.37;;;2.73;;
3081;SDS011;1551;51.046;7.010;2023-08-08T12:33:34;5.00;;;2.60;;
3081;SDS011;1551;51.046;7.010;2023-08-08T12:36:23;7.23;;;2.67;;
3081;SDS011;1551;51.046;7.010;2023-08-08T12:39:12;4.57;;;2.73;;
3081;SDS011;1551;51.046;7.010;2023-08-08T12:42:02;4.73;;;3.30;;
3081;SDS011;1551;51.046;7.010;2023-08-08T12:44:52;5.53;;;3.13;;
3081;SDS011;1551;51.046;7.010;2023-08-08T12:47:42;6.50;;;3.00;;
3081;SDS011;1551;51.046;7.010;2023-08-08T12:50:31;4.75;;;3.10;;
3081;SDS011;1551;51.046;7.010;2023-08-08T12:53:20;6.20;;;3.53;;
3081;SDS011;1551;51.046;7.010;2023-08-08T12:56:09;6.70;;;2.50;;
3081;SDS011;1551;51.046;7.010;2023-08-08T12:58:58;5.20;;;2.78;;
3081;SDS011;1551;51.046;7.010;2023-08-08T13:01:47;6.00;;;3.20;;
3081;SDS011;1551;51.046;7.010;2023-08-08T13:04:36;5.35;;;3.40;;
3081;SDS011;1551;51.046;7.010;2023-08-08T13:07:25;6.10;;;2.78;;
3081;SDS011;1551;51.046;7.010;2023-08-08T13:10:14;5.03;;;3.30;;
3081;SDS011;1551;51.046;7.010;2023-08-08T13:13:03;4.32;;;2.70;;
3081;SDS011;1551;51.046;7.010;2023-08-08T13:15:52;4.90;;;2.80;;
3081;SDS011;1551;51.046;7.010;2023-08-08T13:18:41;4.78;;;3.30;;
3081;SDS011;1551;51.046;7.010;2023-08-08T13:21:30;6.50;;;3.40;;
3081;SDS011;1551;51.046;7.010;2023-08-08T13:24:20;4.75;;;2.90;;
3081;SDS011;1551;51.046;7.010;2023-08-08T13:27:12;6.13;;;3.30;;
3081;SDS011;1551;51.046;7.010;2023-08-08T13:30:01;6.90;;;3.50;;
3081;SDS011;1551;51.046;7.010;2023-08-08T13:32:50;4.95;;;3.60;;
3081;SDS011;1551;51.046;7.010;2023-08-08T13:35:40;5.68;;;3.10;;
3081;SDS011;1551;51.046;7.010;2023-08-08T13:38:28;5.07;;;3.40;;
3081;SDS011;1551;51.046;7.010;2023-08-08T13:41:18;4.38;;;3.40;;
3081;SDS011;1551;51.046;7.010;2023-08-08T13:44:06;4.50;;;2.88;;
3081;SDS011;1551;51.046;7.010;2023-08-08T13:46:55;4.03;;;3.47;;
3081;SDS011;1551;51.046;7.010;2023-08-08T13:49:46;3.83;;;2.80;;
3081;SDS011;1551;51.046;7.010;2023-08-08T13:52:36;4.07;;;2.70;;
3081;SDS011;1551;51.046;7.010;2023-08-08T13:55:25;5.43;;;3.20;;
3081;SDS011;1551;51.046;7.010;2023-08-08T13:58:15;5.03;;;2.70;;
3081;SDS011;1551;51.046;7.010;2023-08-08T14:01:04;7.03;;;3.10;;
3081;SDS011;1551;51.046;7.010;2023-08-08T14:03:53;6.43;;;3.08;;
3081;SDS011;1551;51.046;7.010;2023-08-08T14:06:42;4.63;;;2.42;;
3081;SDS011;1551;51.046;7.010;2023-08-08T14:09:31;4.95;;;2.55;;
3081;SDS011;1551;51.046;7.010;2023-08-08T14:12:20;5.00;;;2.20;;
3081;SDS011;1551;51.046;7.010;2023-08-08T14:15:09;3.30;;;1.80;;
3081;SDS011;1551;51.046;7.010;2023-08-08T14:17:58;4.05;;;2.38;;
3081;SDS011;1551;51.046;7.010;2023-08-08T14:20:47;5.05;;;2.38;;
3081;SDS011;1551;51.046;7.010;2023-08-08T14:23:36;5.57;;;2.10;;
3081;SDS011;1551;51.046;7.010;2023-08-08T14:26:25;5.00;;;2.10;;
3081;SDS011;1551;51.046;7.010;2023-08-08T14:29:14;3.78;;;1.63;;
3081;SDS011;1551;51.046;7.010;2023-08-08T14:32:03;5.20;;;1.80;;
3081;SDS011;1551;51.046;7.010;2023-08-08T14:34:52;3.35;;;1.70;;
3081;SDS011;1551;51.046;7.010;2023-08-08T14:37:41;3.97;;;2.17;;
3081;SDS011;1551;51.046;7.010;2023-08-08T14:40:30;3.10;;;1.70;;
3081;SDS011;1551;51.046;7.010;2023-08-08T14:43:20;4.05;;;1.70;;
3081;SDS011;1551;51.046;7.010;2023-08-08T14:46:09;5.93;;;1.90;;
3081;SDS011;1551;51.046;7.010;2023-08-08T14:48:59;5.50;;;1.70;;
3081;SDS011;1551;51.046;7.010;2023-08-08T14:51:48;4.28;;;2.55;;
3081;SDS011;1551;51.046;7.010;2023-08-08T14:54:37;5.50;;;2.20;;
3081;SDS011;1551;51.046;7.010;2023-08-08T14:57:26;4.63;;;1.60;;
3081;SDS011;1551;51.046;7.010;2023-08-08T15:00:14;4.93;;;1.97;;
3081;SDS011;1551;51.046;7.010;2023-08-08T15:03:04;4.20;;;2.00;;
3081;SDS011;1551;51.046;7.010;2023-08-08T15:05:54;3.50;;;1.70;;
3081;SDS011;1551;51.046;7.010;2023-08-08T15:08:43;5.00;;;2.10;;
3081;SDS011;1551;51.046;7.010;2023-08-08T15:11:32;4.40;;;2.20;;
3081;SDS011;1551;51.046;7.010;2023-08-08T15:14:21;5.18;;;1.92;;
3081;SDS011;1551;51.046;7.010;2023-08-08T15:17:10;4.90;;;2.10;;
3081;SDS011;1551;51.046;7.010;2023-08-08T15:19:59;3.50;;;1.90;;
3081;SDS011;1551;51.046;7.010;2023-08-08T15:22:48;4.18;;;1.90;;
3081;SDS011;1551;51.046;7.010;2023-08-08T15:25:37;5.85;;;2.08;;
3081;SDS011;1551;51.046;7.010;2023-08-08T15:28:26;3.78;;;2.33;;
3081;SDS011;1551;51.046;7.010;2023-08-08T15:31:15;4.00;;;2.10;;
3081;SDS011;1551;51.046;7.010;2023-08-08T15:34:07;3.70;;;1.90;;
3081;SDS011;1551;51.046;7.010;2023-08-08T15:36:56;3.88;;;2.40;;
3081;SDS011;1551;51.046;7.010;2023-08-08T15:39:47;3.28;;;1.75;;
3081;SDS011;1551;51.046;7.010;2023-08-08T15:42:36;4.20;;;1.70;;
3081;SDS011;1551;51.046;7.010;2023-08-08T15:45:29;7.40;;;2.35;;
3081;SDS011;1551;51.046;7.010;2023-08-08T15:48:18;4.45;;;2.10;;
3081;SDS011;1551;51.046;7.010;2023-08-08T15:51:06;3.88;;;1.63;;
3081;SDS011;1551;51.046;7.010;2023-08-08T15:53:55;4.95;;;2.05;;
3081;SDS011;1551;51.046;7.010;2023-08-08T15:56:44;4.90;;;2.00;;
3081;SDS011;1551;51.046;7.010;2023-08-08T15:59:33;3.95;;;1.80;;
3081;SDS011;1551;51.046;7.010;2023-08-08T16:02:22;5.00;;;1.85;;
3081;SDS011;1551;51.046;7.010;2023-08-08T16:05:11;4.50;;;1.90;;
3081;SDS011;1551;51.046;7.010;2023-08-08T16:08:00;4.13;;;2.15;;
3081;SDS011;1551;51.046;7.010;2023-08-08T16:10:50;5.28;;;1.85;;
3081;SDS011;1551;51.046;7.010;2023-08-08T16:13:39;3.42;;;1.65;;
3081;SDS011;1551;51.046;7.010;2023-08-08T16:16:28;3.10;;;1.80;;
3081;SDS011;1551;51.046;7.010;2023-08-08T16:19:17;3.25;;;1.67;;
3081;SDS011;1551;51.046;7.010;2023-08-08T16:22:06;4.53;;;1.85;;
3081;SDS011;1551;51.046;7.010;2023-08-08T16:24:55;5.10;;;1.85;;
3081;SDS011;1551;51.046;7.010;2023-08-08T16:27:44;8.27;;;2.00;;
3081;SDS011;1551;51.046;7.010;2023-08-08T16:30:33;3.20;;;1.85;;
3081;SDS011;1551;51.046;7.010;2023-08-08T16:33:22;4.00;;;1.80;;
3081;SDS011;1551;51.046;7.010;2023-08-08T16:36:11;4.15;;;2.00;;
3081;SDS011;1551;51.046;7.010;2023-08-08T16:39:00;6.13;;;2.03;;
3081;SDS011;1551;51.046;7.010;2023-08-08T16:41:50;3.45;;;1.88;;
3081;SDS011;1551;51.046;7.010;2023-08-08T16:44:38;3.70;;;2.10;;
3081;SDS011;1551;51.046;7.010;2023-08-08T16:47:27;2.93;;;1.70;;
3081;SDS011;1551;51.046;7.010;2023-08-08T16:50:18;4.05;;;1.90;;
3081;SDS011;1551;51.046;7.010;2023-08-08T16:53:07;4.60;;;1.83;;
3081;SDS011;1551;51.046;7.010;2023-08-08T16:55:56;3.38;;;1.67;;
3081;SDS011;1551;51.046;7.010;2023-08-08T16:58:45;3.15;;;1.70;;
3081;SDS011;1551;51.046;7.010;2023-08-08T17:01:34;4.70;;;2.03;;
3081;SDS011;1551;51.046;7.010;2023-08-08T17:04:25;4.88;;;1.95;;
3081;SDS011;1551;51.046;7.010;2023-08-08T17:07:14;5.40;;;1.60;;
3081;SDS011;1551;51.046;7.010;2023-08-08T17:10:03;4.85;;;2.03;;
3081;SDS011;1551;51.046;7.010;2023-08-08T17:12:52;4.10;;;1.60;;
3081;SDS011;1551;51.046;7.010;2023-08-08T17:15:41;3.43;;;1.40;;
3081;SDS011;1551;51.046;7.010;2023-08-08T17:18:30;5.72;;;1.75;;
3081;SDS011;1551;51.046;7.010;2023-08-08T17:21:20;3.50;;;1.80;;
3081;SDS011;1551;51.046;7.010;2023-08-08T17:24:09;3.95;;;1.70;;
3081;SDS011;1551;51.046;7.010;2023-08-08T17:26:58;3.10;;;1.60;;
3081;SDS011;1551;51.046;7.010;2023-08-08T17:29:48;6.30;;;1.70;;
3081;SDS011;1551;51.046;7.010;2023-08-08T17:32:37;4.15;;;1.58;;